createdAt,value
2018-05-07T00:01:27.903Z,2.70
2018-05-07T00:04:00.428Z,3.23
2018-05-07T00:06:32.927Z,3.40
2018-05-07T00:09:05.482Z,2.87
2018-05-07T00:11:38.059Z,3.40
2018-05-07T00:14:10.532Z,3.10
2018-05-07T00:16:43.047Z,2.80
2018-05-07T00:19:15.606Z,3.10
2018-05-07T00:21:48.095Z,3.20
2018-05-07T00:24:20.628Z,2.80
2018-05-07T00:26:53.127Z,2.80
2018-05-07T00:29:25.652Z,3.43
2018-05-07T00:31:58.160Z,3.10
2018-05-07T00:34:30.681Z,3.20
2018-05-07T00:37:03.180Z,3.37
2018-05-07T00:39:35.702Z,3.10
2018-05-07T00:42:08.197Z,3.40
2018-05-07T00:44:40.721Z,3.30
2018-05-07T00:47:13.225Z,3.23
2018-05-07T00:49:45.752Z,3.37
2018-05-07T00:52:18.254Z,3.07
2018-05-07T00:55:02.760Z,3.57
2018-05-07T00:57:35.279Z,3.30
2018-05-07T01:00:07.777Z,3.00
2018-05-07T01:02:40.295Z,2.87
2018-05-07T01:05:12.797Z,3.00
2018-05-07T01:07:47.077Z,2.70
2018-05-07T01:10:19.591Z,2.73
2018-05-07T01:12:52.143Z,2.70
2018-05-07T01:15:24.696Z,2.97
2018-05-07T01:17:57.207Z,2.97
2018-05-07T01:20:29.708Z,3.30
2018-05-07T01:23:02.231Z,3.90
2018-05-07T01:25:34.732Z,3.60
2018-05-07T01:28:07.248Z,3.50
2018-05-07T01:30:39.751Z,3.37
2018-05-07T01:33:12.270Z,3.03
2018-05-07T01:35:44.776Z,2.57
2018-05-07T01:38:17.935Z,3.20
2018-05-07T01:40:50.443Z,3.10
2018-05-07T01:43:22.961Z,3.17
2018-05-07T01:45:55.491Z,3.00
2018-05-07T01:48:28.017Z,3.10
2018-05-07T01:51:00.526Z,2.90
2018-05-07T01:53:33.052Z,3.33
2018-05-07T01:56:05.556Z,3.13
2018-05-07T01:58:38.083Z,3.37
2018-05-07T02:01:10.577Z,3.43
2018-05-07T02:03:43.133Z,3.10
2018-05-07T02:06:15.666Z,3.23
2018-05-07T02:08:48.192Z,3.17
2018-05-07T02:11:20.707Z,3.63
2018-05-07T02:13:53.241Z,3.70
2018-05-07T02:16:25.747Z,3.30
2018-05-07T02:18:58.266Z,3.30
2018-05-07T02:21:30.764Z,3.43
2018-05-07T02:24:03.284Z,3.70
2018-05-07T02:26:35.788Z,3.27
2018-05-07T02:29:08.306Z,2.97
2018-05-07T02:31:40.810Z,3.23
2018-05-07T02:34:13.332Z,4.23
2018-05-07T02:36:46.333Z,4.40
2018-05-07T02:39:18.859Z,3.53
2018-05-07T02:41:51.372Z,2.93
2018-05-07T02:44:23.894Z,3.13
2018-05-07T02:46:56.403Z,2.97
2018-05-07T02:49:28.922Z,3.27
2018-05-07T02:52:01.420Z,3.43
2018-05-07T02:54:33.949Z,3.30
2018-05-07T02:57:06.436Z,3.80
2018-05-07T02:59:38.986Z,3.40
2018-05-07T03:02:11.485Z,3.37
2018-05-07T03:04:44.021Z,3.10
2018-05-07T03:07:16.765Z,3.50
2018-05-07T03:09:49.280Z,3.30
2018-05-07T03:12:21.812Z,3.20
2018-05-07T03:14:54.330Z,3.20
2018-05-07T03:17:26.903Z,3.10
2018-05-07T03:19:59.393Z,3.67
2018-05-07T03:22:31.891Z,3.97
2018-05-07T03:25:04.404Z,3.80
2018-05-07T03:27:36.906Z,3.40
2018-05-07T03:30:09.421Z,3.57
2018-05-07T03:32:41.920Z,4.07
2018-05-07T03:35:14.454Z,3.20
2018-05-07T03:37:47.591Z,3.50
2018-05-07T03:40:20.116Z,3.23
2018-05-07T03:45:31.541Z,3.40
2018-05-07T03:48:04.043Z,3.00
2018-05-07T03:50:36.569Z,3.50
2018-05-07T03:53:09.072Z,3.80
2018-05-07T03:55:41.599Z,4.33
2018-05-07T03:58:14.106Z,3.73
2018-05-07T04:00:46.627Z,3.83
2018-05-07T04:03:19.125Z,2.20
2018-05-07T04:05:51.645Z,3.23
2018-05-07T04:08:24.147Z,2.80
2018-05-07T04:10:56.692Z,3.00
2018-05-07T04:13:29.199Z,3.33
2018-05-07T04:16:01.752Z,3.50
2018-05-07T04:18:46.800Z,3.40
2018-05-07T04:21:19.305Z,3.70
2018-05-07T04:24:03.624Z,3.67
2018-05-07T04:26:36.125Z,3.53
2018-05-07T04:29:08.643Z,3.83
2018-05-07T04:31:41.153Z,3.50
2018-05-07T04:34:13.681Z,4.03
2018-05-07T04:36:47.108Z,3.50
2018-05-07T04:39:19.637Z,3.27
2018-05-07T04:41:52.133Z,3.77
2018-05-07T04:44:24.657Z,3.37
2018-05-07T04:46:57.168Z,3.57
2018-05-07T04:49:29.693Z,5.00
2018-05-07T04:52:02.195Z,3.60
2018-05-07T04:54:34.721Z,3.70
2018-05-07T04:57:07.220Z,3.67
2018-05-07T04:59:39.745Z,3.70
2018-05-07T05:02:12.265Z,3.03
2018-05-07T05:04:44.790Z,2.70
2018-05-07T05:07:18.040Z,2.92
2018-05-07T05:09:50.571Z,3.50
2018-05-07T05:12:23.080Z,4.28
2018-05-07T05:14:55.616Z,4.93
2018-05-07T05:17:28.126Z,4.28
2018-05-07T05:20:00.640Z,4.40
2018-05-07T05:22:33.146Z,4.28
2018-05-07T05:25:05.667Z,4.27
2018-05-07T05:27:38.174Z,4.87
2018-05-07T05:30:10.697Z,4.53
2018-05-07T05:32:43.206Z,4.70
2018-05-07T05:35:15.794Z,4.35
2018-05-07T05:37:48.301Z,4.97
2018-05-07T05:40:20.824Z,4.95
2018-05-07T05:42:53.325Z,5.07
2018-05-07T05:45:25.866Z,4.12
2018-05-07T05:47:58.371Z,4.95
2018-05-07T05:50:30.897Z,4.90
2018-05-07T05:53:03.399Z,4.93
2018-05-07T05:55:36.116Z,5.20
2018-05-07T05:58:08.620Z,5.20
2018-05-07T06:00:41.140Z,4.93
2018-05-07T06:03:13.653Z,4.35
2018-05-07T06:05:46.734Z,4.97
2018-05-07T06:08:19.239Z,5.05
2018-05-07T06:10:51.768Z,4.75
2018-05-07T06:13:24.279Z,5.00
2018-05-07T06:15:56.795Z,4.75
2018-05-07T06:18:29.291Z,4.90
2018-05-07T06:21:01.813Z,4.72
2018-05-07T06:23:34.325Z,4.95
2018-05-07T06:26:06.858Z,4.95
2018-05-07T06:28:39.358Z,4.55
2018-05-07T06:31:11.880Z,4.97
2018-05-07T06:33:44.394Z,5.15
2018-05-07T06:36:17.473Z,4.97
2018-05-07T06:38:49.991Z,5.22
2018-05-07T06:41:22.537Z,5.20
2018-05-07T06:43:55.067Z,4.53
2018-05-07T06:46:27.615Z,4.72
2018-05-07T06:49:00.141Z,4.28
2018-05-07T06:51:32.664Z,4.62
2018-05-07T06:54:05.166Z,4.18
2018-05-07T06:56:37.688Z,4.75
2018-05-07T06:59:10.179Z,4.90
2018-05-07T07:01:42.701Z,4.28
2018-05-07T07:04:15.200Z,4.22
2018-05-07T07:06:48.649Z,4.22
2018-05-07T07:09:21.166Z,4.25
2018-05-07T07:11:53.699Z,4.70
2018-05-07T07:14:26.197Z,4.15
2018-05-07T07:16:58.729Z,3.58
2018-05-07T07:19:31.236Z,3.85
2018-05-07T07:22:04.384Z,3.83
2018-05-07T07:24:36.897Z,4.10
2018-05-07T07:27:09.430Z,4.40
2018-05-07T07:29:41.933Z,4.00
2018-05-07T07:32:14.461Z,3.97
2018-05-07T07:34:47.684Z,5.00
2018-05-07T07:37:20.204Z,4.05
2018-05-07T07:39:52.713Z,4.30
2018-05-07T07:42:25.247Z,4.55
2018-05-07T07:44:57.742Z,4.22
2018-05-07T07:47:30.262Z,3.83
2018-05-07T07:50:02.773Z,4.12
2018-05-07T07:52:35.301Z,4.10
2018-05-07T07:55:07.804Z,3.92
2018-05-07T07:57:40.351Z,3.80
2018-05-07T08:00:12.869Z,3.95
2018-05-07T08:02:45.976Z,4.28
2018-05-07T08:05:18.505Z,4.30
2018-05-07T08:07:51.012Z,4.78
2018-05-07T08:10:23.546Z,4.12
2018-05-07T08:12:56.054Z,4.22
2018-05-07T08:15:28.581Z,4.70
2018-05-07T08:18:01.083Z,5.60
2018-05-07T08:20:33.590Z,5.30
2018-05-07T08:23:06.096Z,5.22
2018-05-07T08:25:38.635Z,5.15
2018-05-07T08:28:11.136Z,4.37
2018-05-07T08:30:43.651Z,5.05
2018-05-07T08:33:16.507Z,4.68
2018-05-07T08:35:49.028Z,4.70
2018-05-07T08:38:21.523Z,4.22
2018-05-07T08:40:54.047Z,4.95
2018-05-07T08:43:26.585Z,4.32
2018-05-07T08:45:59.104Z,4.40
2018-05-07T08:48:31.608Z,4.20
2018-05-07T08:51:04.160Z,3.85
2018-05-07T08:53:36.657Z,4.20
2018-05-07T08:56:09.173Z,3.67
2018-05-07T08:58:41.757Z,3.50
2018-05-07T09:01:14.286Z,2.83
2018-05-07T09:03:46.811Z,3.65
2018-05-07T09:06:19.327Z,3.80
2018-05-07T09:08:51.824Z,3.15
2018-05-07T09:11:24.343Z,3.67
2018-05-07T09:13:56.848Z,3.42
2018-05-07T09:16:29.382Z,3.30
2018-05-07T09:19:01.882Z,3.40
2018-05-07T09:21:34.414Z,4.10
2018-05-07T09:24:06.994Z,3.67
2018-05-07T09:26:39.468Z,3.42
2018-05-07T09:29:11.971Z,3.20
2018-05-07T09:31:44.497Z,4.00
2018-05-07T09:34:17.820Z,3.47
2018-05-07T09:36:50.346Z,3.30
2018-05-07T09:39:22.847Z,3.30
2018-05-07T09:41:55.378Z,3.40
2018-05-07T09:44:27.872Z,3.45
2018-05-07T09:47:00.397Z,2.60
2018-05-07T09:49:32.907Z,2.80
2018-05-07T09:52:05.418Z,2.70
2018-05-07T09:54:37.924Z,2.65
2018-05-07T09:57:10.456Z,2.40
2018-05-07T09:59:42.956Z,2.67
2018-05-07T10:02:15.760Z,2.50
2018-05-07T10:04:48.260Z,2.62
2018-05-07T10:07:20.776Z,2.60
2018-05-07T10:09:53.299Z,2.95
2018-05-07T10:12:25.810Z,3.20
2018-05-07T10:14:58.315Z,2.97
2018-05-07T10:17:30.895Z,2.80
2018-05-07T10:20:03.412Z,3.45
2018-05-07T10:22:35.933Z,3.42
2018-05-07T10:25:08.434Z,3.10
2018-05-07T10:27:40.959Z,3.30
2018-05-07T10:30:13.478Z,3.67
2018-05-07T10:32:46.536Z,3.50
2018-05-07T10:35:19.048Z,3.87
2018-05-07T10:37:51.586Z,3.17
2018-05-07T10:40:24.091Z,3.33
2018-05-07T10:42:56.608Z,3.15
2018-05-07T10:45:29.109Z,2.90
2018-05-07T10:48:01.640Z,3.37
2018-05-07T10:50:34.139Z,3.67
2018-05-07T10:53:06.673Z,3.12
2018-05-07T10:55:39.180Z,3.33
2018-05-07T10:58:11.709Z,3.08
2018-05-07T11:00:44.211Z,2.85
2018-05-07T11:03:16.737Z,2.85
2018-05-07T11:05:49.245Z,2.67
2018-05-07T11:08:21.771Z,3.20
2018-05-07T11:10:54.280Z,2.62
2018-05-07T11:13:26.807Z,2.62
2018-05-07T11:15:59.303Z,2.50
2018-05-07T11:18:31.817Z,2.33
2018-05-07T11:21:04.317Z,2.50
2018-05-07T11:23:36.851Z,2.28
2018-05-07T11:26:09.347Z,2.45
2018-05-07T11:28:41.875Z,2.90
2018-05-07T11:31:14.545Z,2.28
2018-05-07T11:33:47.135Z,2.17
2018-05-07T11:36:19.670Z,2.10
2018-05-07T11:38:52.174Z,2.20
2018-05-07T11:41:24.698Z,2.10
2018-05-07T11:43:57.209Z,2.30
2018-05-07T11:46:29.737Z,2.58
2018-05-07T11:49:02.233Z,2.20
2018-05-07T11:51:34.755Z,2.47
2018-05-07T11:54:07.253Z,2.75
2018-05-07T11:56:39.769Z,2.37
2018-05-07T11:59:12.281Z,2.40
2018-05-07T12:01:44.825Z,2.30
2018-05-07T12:04:18.003Z,2.10
2018-05-07T12:06:50.528Z,2.22
2018-05-07T12:09:23.060Z,2.60
2018-05-07T12:11:55.577Z,2.35
2018-05-07T12:14:28.085Z,2.50
2018-05-07T12:17:00.599Z,2.30
2018-05-07T12:19:33.099Z,2.20
2018-05-07T12:22:05.621Z,2.42
2018-05-07T12:24:38.127Z,2.45
2018-05-07T12:27:10.653Z,2.28
2018-05-07T12:29:43.152Z,2.33
2018-05-07T12:32:15.784Z,2.35
2018-05-07T12:34:48.292Z,2.22
2018-05-07T12:37:20.805Z,2.47
2018-05-07T12:39:53.307Z,2.35
2018-05-07T12:42:25.828Z,2.20
2018-05-07T12:44:58.328Z,2.45
2018-05-07T12:47:30.843Z,2.33
2018-05-07T12:50:03.352Z,2.40
2018-05-07T12:52:35.942Z,2.00
2018-05-07T12:55:08.399Z,2.33
2018-05-07T12:57:40.943Z,2.87
2018-05-07T13:00:13.457Z,2.33
2018-05-07T13:02:46.757Z,2.78
2018-05-07T13:05:19.260Z,2.60
2018-05-07T13:07:51.789Z,2.50
2018-05-07T13:10:24.299Z,2.47
2018-05-07T13:12:56.888Z,2.28
2018-05-07T13:15:29.356Z,2.62
2018-05-07T13:18:01.899Z,2.30
2018-05-07T13:20:34.401Z,2.50
2018-05-07T13:23:06.928Z,2.47
2018-05-07T13:25:39.435Z,2.33
2018-05-07T13:28:11.961Z,2.92
2018-05-07T13:30:44.471Z,2.47
2018-05-07T13:33:17.799Z,2.40
2018-05-07T13:35:50.292Z,2.47
2018-05-07T13:38:22.816Z,2.42
2018-05-07T13:40:55.328Z,2.62
2018-05-07T13:43:27.863Z,2.50
2018-05-07T13:46:02.870Z,2.65
2018-05-07T13:48:35.889Z,2.60
2018-05-07T13:51:08.466Z,2.40
2018-05-07T13:53:40.924Z,2.80
2018-05-07T13:56:13.444Z,2.50
2018-05-07T13:58:46.805Z,2.55
2018-05-07T14:01:19.309Z,2.62
2018-05-07T14:03:51.832Z,2.40
2018-05-07T14:06:24.336Z,2.78
2018-05-07T14:08:57.164Z,2.92
2018-05-07T14:11:29.669Z,2.28
2018-05-07T14:14:02.198Z,3.17
2018-05-07T14:16:34.728Z,2.60
2018-05-07T14:19:07.253Z,2.50
2018-05-07T14:21:39.791Z,2.78
2018-05-07T14:24:12.360Z,2.67
2018-05-07T14:26:44.907Z,3.17
2018-05-07T14:29:18.186Z,3.20
2018-05-07T14:31:50.704Z,3.33
2018-05-07T14:34:23.275Z,3.37
2018-05-07T14:36:55.791Z,3.58
2018-05-07T14:39:28.409Z,3.67
2018-05-07T14:42:01.010Z,3.22
2018-05-07T14:44:33.565Z,3.53
2018-05-07T14:47:19.699Z,3.00
2018-05-07T14:49:52.739Z,2.70
2018-05-07T14:52:25.259Z,2.67
2018-05-07T14:54:57.768Z,2.78
2018-05-07T14:57:30.304Z,2.70
2018-05-07T15:00:02.808Z,2.70
2018-05-07T15:02:35.330Z,2.53
2018-05-07T15:05:07.837Z,2.15
2018-05-07T15:07:40.363Z,2.37
2018-05-07T15:10:12.917Z,2.80
2018-05-07T15:12:46.088Z,2.60
2018-05-07T15:15:18.599Z,2.78
2018-05-07T15:17:51.189Z,2.70
2018-05-07T15:20:23.694Z,2.90
2018-05-07T15:22:56.228Z,3.12
2018-05-07T15:25:28.732Z,3.50
2018-05-07T15:28:01.248Z,3.20
2018-05-07T15:30:33.761Z,2.87
2018-05-07T15:33:06.287Z,2.72
2018-05-07T15:35:38.791Z,2.70
2018-05-07T15:38:11.328Z,2.42
2018-05-07T15:40:43.837Z,2.20
2018-05-07T15:43:16.829Z,2.85
2018-05-07T15:45:49.322Z,2.45
2018-05-07T15:48:21.856Z,2.22
2018-05-07T15:50:54.363Z,2.50
2018-05-07T15:53:26.883Z,2.37
2018-05-07T15:55:59.429Z,2.35
2018-05-07T15:58:31.936Z,2.15
2018-05-07T16:01:04.450Z,2.10
2018-05-07T16:03:36.981Z,2.42
2018-05-07T16:06:09.547Z,2.55
2018-05-07T16:08:42.102Z,2.15
2018-05-07T16:11:14.599Z,2.70
2018-05-07T16:13:47.720Z,2.92
2018-05-07T16:16:20.290Z,2.47
2018-05-07T16:18:53.728Z,2.20
2018-05-07T16:21:26.394Z,2.25
2018-05-07T16:23:58.801Z,2.70
2018-05-07T16:26:31.340Z,2.70
2018-05-07T16:29:03.999Z,2.20
2018-05-07T16:31:37.340Z,2.55
2018-05-07T16:34:09.872Z,2.47
2018-05-07T16:36:42.400Z,2.47
2018-05-07T16:39:14.948Z,2.40
2018-05-07T16:41:48.175Z,2.85
2018-05-07T16:44:20.701Z,2.15
2018-05-07T16:46:53.235Z,2.22
2018-05-07T16:49:25.794Z,2.40
2018-05-07T16:51:58.458Z,2.20
2018-05-07T16:54:30.985Z,2.67
2018-05-07T16:57:03.494Z,2.22
2018-05-07T16:59:36.022Z,2.50
2018-05-07T17:02:08.516Z,2.30
2018-05-07T17:04:41.037Z,2.20
2018-05-07T17:07:13.602Z,2.40
2018-05-07T17:09:46.238Z,2.40
2018-05-07T17:12:18.767Z,2.78
2018-05-07T17:14:51.293Z,2.60
2018-05-07T17:17:23.792Z,2.60
2018-05-07T17:19:56.326Z,2.67
2018-05-07T17:22:28.915Z,2.10
2018-05-07T17:25:01.605Z,2.50
2018-05-07T17:27:34.147Z,2.80
2018-05-07T17:30:06.769Z,2.47
2018-05-07T17:32:39.196Z,2.50
2018-05-07T17:35:11.787Z,2.42
2018-05-07T17:37:44.324Z,2.17
2018-05-07T17:40:16.868Z,2.40
2018-05-07T17:42:49.399Z,2.37
2018-05-07T17:48:43.248Z,2.30
2018-05-07T17:51:15.859Z,2.62
2018-05-07T17:53:48.449Z,2.70
2018-05-07T17:56:21.261Z,2.50
2018-05-07T17:58:53.717Z,2.53
2018-05-07T18:01:26.317Z,2.05
2018-05-07T18:03:58.930Z,2.00
2018-05-07T18:06:31.554Z,2.30
2018-05-07T18:09:04.198Z,2.30
2018-05-07T18:11:36.790Z,2.42
2018-05-07T18:14:09.434Z,2.20
2018-05-07T18:16:42.074Z,2.87
2018-05-07T18:19:14.748Z,2.47
2018-05-07T18:21:47.264Z,2.50
2018-05-07T18:24:19.905Z,2.42
2018-05-07T18:26:52.492Z,2.72
2018-05-07T18:29:26.241Z,2.10
2018-05-07T18:31:58.840Z,2.05
2018-05-07T18:34:31.485Z,2.12
2018-05-07T18:37:04.273Z,2.20
2018-05-07T18:39:36.892Z,2.00
2018-05-07T18:42:09.484Z,2.45
2018-05-07T18:44:42.101Z,2.10
2018-05-07T18:47:14.712Z,2.30
2018-05-07T18:49:47.368Z,2.33
2018-05-07T18:52:19.957Z,2.50
2018-05-07T18:54:52.557Z,2.28
2018-05-07T18:57:25.133Z,2.40
2018-05-07T18:59:57.747Z,2.37
2018-05-07T19:02:30.375Z,2.47
2018-05-07T19:05:03.007Z,2.33
2018-05-07T19:07:35.582Z,2.30
2018-05-07T19:10:08.167Z,2.58
2018-05-07T19:12:40.790Z,2.20
2018-05-07T19:15:13.380Z,2.62
2018-05-07T19:17:46.043Z,2.50
2018-05-07T19:20:19.518Z,2.33
2018-05-07T19:22:52.091Z,2.20
2018-05-07T19:25:24.688Z,2.33
2018-05-07T19:27:57.275Z,2.50
2018-05-07T19:30:29.867Z,2.22
2018-05-07T19:33:02.458Z,2.50
2018-05-07T19:35:35.166Z,2.33
2018-05-07T19:38:07.746Z,2.10
2018-05-07T19:40:40.386Z,2.65
2018-05-07T19:43:12.938Z,2.60
2018-05-07T19:45:45.536Z,2.55
2018-05-07T19:48:18.111Z,2.37
2018-05-07T19:50:50.668Z,2.40
2018-05-07T19:53:23.358Z,2.53
2018-05-07T19:55:56.038Z,2.80
2018-05-07T19:58:28.625Z,2.90
2018-05-07T22:10:13.386Z,3.30
2018-05-07T22:12:45.969Z,3.30
2018-05-07T22:15:18.563Z,3.12
2018-05-07T22:17:51.134Z,3.55
2018-05-07T22:20:23.724Z,2.95
2018-05-07T22:22:56.287Z,3.40
2018-05-07T22:25:28.863Z,3.90
2018-05-07T22:28:01.418Z,3.55
2018-05-07T22:30:33.978Z,3.12
2018-05-07T22:33:06.572Z,3.22
2018-05-07T22:35:39.220Z,3.12
2018-05-07T22:38:11.839Z,3.25
2018-05-07T22:40:44.490Z,3.08
2018-05-07T22:43:17.098Z,3.40
2018-05-07T22:45:49.739Z,3.95
2018-05-07T22:48:22.337Z,3.50
2018-05-07T22:50:54.965Z,3.17
2018-05-07T22:53:27.578Z,3.50
2018-05-07T22:56:00.216Z,3.42
2018-05-07T22:58:32.840Z,4.00
2018-05-07T23:01:05.415Z,3.70
2018-05-07T23:03:37.982Z,3.50
2018-05-07T23:06:10.583Z,3.50
2018-05-07T23:08:43.175Z,3.15
2018-05-07T23:11:15.759Z,3.55
2018-05-07T23:13:48.310Z,3.17
2018-05-07T23:16:20.924Z,3.35
2018-05-07T23:18:53.512Z,3.30
2018-05-07T23:21:26.088Z,3.67
2018-05-07T23:23:58.674Z,3.50
2018-05-07T23:26:31.256Z,3.80
2018-05-07T23:29:03.833Z,3.50
2018-05-07T23:31:36.452Z,4.00
2018-05-07T23:34:09.008Z,3.97
2018-05-07T23:36:41.582Z,3.60
2018-05-07T23:39:14.160Z,3.65
2018-05-07T23:41:46.741Z,3.20
2018-05-07T23:44:19.322Z,3.75
2018-05-07T23:46:51.906Z,3.95
2018-05-07T23:49:24.493Z,3.85
2018-05-07T23:51:57.083Z,3.90
2018-05-07T23:54:29.655Z,4.18
2018-05-07T23:57:02.237Z,3.92
2018-05-07T23:59:34.795Z,4.20
